sensor_id;sensor_type;location;lat;lon;timestamp;P1;durP1;ratioP1;P2;durP2;ratioP2
53710;SDS011;39605;52.704;6.752;2023-11-21T00:01:20;25.50;;;11.60;;
53710;SDS011;39605;52.704;6.752;2023-11-21T00:03:46;21.65;;;11.48;;
53710;SDS011;39605;52.704;6.752;2023-11-21T00:06:12;25.02;;;12.00;;
53710;SDS011;39605;52.704;6.752;2023-11-21T00:08:39;25.83;;;12.75;;
53710;SDS011;39605;52.704;6.752;2023-11-21T00:11:05;25.35;;;12.68;;
53710;SDS011;39605;52.704;6.752;2023-11-21T00:13:32;26.73;;;11.77;;
53710;SDS011;39605;52.704;6.752;2023-11-21T00:15:58;25.67;;;12.57;;
53710;SDS011;39605;52.704;6.752;2023-11-21T00:18:24;27.20;;;13.07;;
53710;SDS011;39605;52.704;6.752;2023-11-21T00:20:50;26.92;;;13.98;;
53710;SDS011;39605;52.704;6.752;2023-11-21T00:23:17;24.38;;;12.02;;
53710;SDS011;39605;52.704;6.752;2023-11-21T00:25:43;33.78;;;12.88;;
53710;SDS011;39605;52.704;6.752;2023-11-21T00:28:09;28.10;;;14.30;;
53710;SDS011;39605;52.704;6.752;2023-11-21T00:30:35;23.70;;;12.88;;
53710;SDS011;39605;52.704;6.752;2023-11-21T00:33:01;28.35;;;13.20;;
53710;SDS011;39605;52.704;6.752;2023-11-21T00:35:27;27.35;;;11.98;;
53710;SDS011;39605;52.704;6.752;2023-11-21T00:37:53;29.17;;;13.18;;
53710;SDS011;39605;52.704;6.752;2023-11-21T00:40:19;21.35;;;11.48;;
53710;SDS011;39605;52.704;6.752;2023-11-21T00:42:46;25.08;;;12.85;;
53710;SDS011;39605;52.704;6.752;2023-11-21T00:45:12;27.60;;;12.38;;
53710;SDS011;39605;52.704;6.752;2023-11-21T00:47:38;31.27;;;13.68;;
53710;SDS011;39605;52.704;6.752;2023-11-21T00:50:04;21.77;;;12.10;;
53710;SDS011;39605;52.704;6.752;2023-11-21T00:52:34;28.42;;;12.70;;
53710;SDS011;39605;52.704;6.752;2023-11-21T00:55:01;21.42;;;12.98;;
53710;SDS011;39605;52.704;6.752;2023-11-21T00:57:28;22.13;;;11.40;;
53710;SDS011;39605;52.704;6.752;2023-11-21T00:59:54;25.77;;;12.10;;
53710;SDS011;39605;52.704;6.752;2023-11-21T01:02:20;30.38;;;12.05;;
53710;SDS011;39605;52.704;6.752;2023-11-21T01:04:46;24.00;;;11.48;;
53710;SDS011;39605;52.704;6.752;2023-11-21T01:07:13;21.92;;;10.52;;
53710;SDS011;39605;52.704;6.752;2023-11-21T01:09:39;24.38;;;12.55;;
53710;SDS011;39605;52.704;6.752;2023-11-21T01:12:05;25.08;;;11.85;;
53710;SDS011;39605;52.704;6.752;2023-11-21T01:14:31;25.02;;;12.35;;
53710;SDS011;39605;52.704;6.752;2023-11-21T01:16:58;27.52;;;12.63;;
53710;SDS011;39605;52.704;6.752;2023-11-21T01:19:24;29.25;;;13.45;;
53710;SDS011;39605;52.704;6.752;2023-11-21T01:21:50;25.02;;;12.48;;
53710;SDS011;39605;52.704;6.752;2023-11-21T01:24:18;29.90;;;12.93;;
53710;SDS011;39605;52.704;6.752;2023-11-21T01:26:44;28.58;;;12.35;;
53710;SDS011;39605;52.704;6.752;2023-11-21T01:29:11;27.83;;;12.43;;
53710;SDS011;39605;52.704;6.752;2023-11-21T01:31:37;23.05;;;11.00;;
53710;SDS011;39605;52.704;6.752;2023-11-21T01:34:04;26.85;;;12.10;;
53710;SDS011;39605;52.704;6.752;2023-11-21T01:36:30;24.60;;;11.48;;
53710;SDS011;39605;52.704;6.752;2023-11-21T01:39:00;23.15;;;10.90;;
53710;SDS011;39605;52.704;6.752;2023-11-21T01:41:27;18.38;;;10.77;;
53710;SDS011;39605;52.704;6.752;2023-11-21T01:43:54;30.33;;;12.55;;
53710;SDS011;39605;52.704;6.752;2023-11-21T01:46:20;24.70;;;11.57;;
53710;SDS011;39605;52.704;6.752;2023-11-21T01:48:47;22.58;;;10.88;;
53710;SDS011;39605;52.704;6.752;2023-11-21T01:51:14;25.67;;;11.43;;
53710;SDS011;39605;52.704;6.752;2023-11-21T01:53:40;29.27;;;13.82;;
53710;SDS011;39605;52.704;6.752;2023-11-21T01:56:06;24.58;;;11.68;;
53710;SDS011;39605;52.704;6.752;2023-11-21T01:58:33;24.38;;;11.15;;
53710;SDS011;39605;52.704;6.752;2023-11-21T02:00:59;26.15;;;11.60;;
53710;SDS011;39605;52.704;6.752;2023-11-21T02:03:25;22.08;;;10.88;;
53710;SDS011;39605;52.704;6.752;2023-11-21T02:05:52;24.48;;;11.23;;
53710;SDS011;39605;52.704;6.752;2023-11-21T02:08:18;24.80;;;12.20;;
53710;SDS011;39605;52.704;6.752;2023-11-21T02:10:45;23.70;;;12.18;;
53710;SDS011;39605;52.704;6.752;2023-11-21T02:13:12;28.80;;;12.68;;
53710;SDS011;39605;52.704;6.752;2023-11-21T02:15:38;26.70;;;11.93;;
53710;SDS011;39605;52.704;6.752;2023-11-21T02:18:06;24.27;;;11.07;;
53710;SDS011;39605;52.704;6.752;2023-11-21T02:20:32;24.30;;;11.52;;
53710;SDS011;39605;52.704;6.752;2023-11-21T02:23:00;25.98;;;12.85;;
53710;SDS011;39605;52.704;6.752;2023-11-21T02:25:27;25.10;;;12.60;;
53710;SDS011;39605;52.704;6.752;2023-11-21T02:27:53;27.02;;;12.70;;
53710;SDS011;39605;52.704;6.752;2023-11-21T02:30:20;21.30;;;11.05;;
53710;SDS011;39605;52.704;6.752;2023-11-21T02:32:47;24.33;;;11.68;;
53710;SDS011;39605;52.704;6.752;2023-11-21T02:35:14;22.90;;;13.07;;
53710;SDS011;39605;52.704;6.752;2023-11-21T02:37:41;25.33;;;12.30;;
53710;SDS011;39605;52.704;6.752;2023-11-21T02:40:08;25.45;;;11.07;;
53710;SDS011;39605;52.704;6.752;2023-11-21T02:42:35;24.85;;;11.35;;
53710;SDS011;39605;52.704;6.752;2023-11-21T02:45:01;22.75;;;11.35;;
53710;SDS011;39605;52.704;6.752;2023-11-21T02:47:27;24.10;;;11.65;;
53710;SDS011;39605;52.704;6.752;2023-11-21T02:49:53;28.02;;;11.07;;
53710;SDS011;39605;52.704;6.752;2023-11-21T02:52:20;21.50;;;10.63;;
53710;SDS011;39605;52.704;6.752;2023-11-21T02:54:46;26.95;;;12.07;;
53710;SDS011;39605;52.704;6.752;2023-11-21T02:57:12;28.02;;;11.95;;
53710;SDS011;39605;52.704;6.752;2023-11-21T02:59:38;21.95;;;11.02;;
53710;SDS011;39605;52.704;6.752;2023-11-21T03:02:04;20.85;;;10.48;;
53710;SDS011;39605;52.704;6.752;2023-11-21T03:04:34;22.95;;;11.25;;
53710;SDS011;39605;52.704;6.752;2023-11-21T03:07:00;22.25;;;11.75;;
53710;SDS011;39605;52.704;6.752;2023-11-21T03:09:26;25.85;;;13.32;;
53710;SDS011;39605;52.704;6.752;2023-11-21T03:11:55;28.75;;;13.90;;
53710;SDS011;39605;52.704;6.752;2023-11-21T03:14:21;31.05;;;12.35;;
53710;SDS011;39605;52.704;6.752;2023-11-21T03:16:47;28.80;;;13.57;;
53710;SDS011;39605;52.704;6.752;2023-11-21T03:19:14;27.30;;;12.93;;
53710;SDS011;39605;52.704;6.752;2023-11-21T03:21:40;27.52;;;13.73;;
53710;SDS011;39605;52.704;6.752;2023-11-21T03:24:06;33.55;;;14.85;;
53710;SDS011;39605;52.704;6.752;2023-11-21T03:26:32;29.75;;;14.55;;
53710;SDS011;39605;52.704;6.752;2023-11-21T03:28:59;29.77;;;14.65;;
53710;SDS011;39605;52.704;6.752;2023-11-21T03:31:25;35.15;;;15.45;;
53710;SDS011;39605;52.704;6.752;2023-11-21T03:33:51;23.75;;;12.60;;
53710;SDS011;39605;52.704;6.752;2023-11-21T03:36:19;26.42;;;13.68;;
53710;SDS011;39605;52.704;6.752;2023-11-21T03:38:45;32.63;;;14.55;;
53710;SDS011;39605;52.704;6.752;2023-11-21T03:41:11;36.80;;;15.48;;
53710;SDS011;39605;52.704;6.752;2023-11-21T03:43:37;25.00;;;12.27;;
53710;SDS011;39605;52.704;6.752;2023-11-21T03:46:03;24.23;;;12.70;;
53710;SDS011;39605;52.704;6.752;2023-11-21T03:48:29;26.65;;;11.10;;
53710;SDS011;39605;52.704;6.752;2023-11-21T03:50:55;27.13;;;11.43;;
53710;SDS011;39605;52.704;6.752;2023-11-21T03:53:21;29.90;;;13.30;;
53710;SDS011;39605;52.704;6.752;2023-11-21T03:55:47;26.45;;;11.73;;
53710;SDS011;39605;52.704;6.752;2023-11-21T03:58:14;19.60;;;11.20;;
53710;SDS011;39605;52.704;6.752;2023-11-21T04:00:40;23.55;;;10.85;;
53710;SDS011;39605;52.704;6.752;2023-11-21T04:03:06;24.10;;;11.90;;
53710;SDS011;39605;52.704;6.752;2023-11-21T04:05:32;22.98;;;10.60;;
53710;SDS011;39605;52.704;6.752;2023-11-21T04:07:58;23.65;;;10.98;;
53710;SDS011;39605;52.704;6.752;2023-11-21T04:10:24;27.85;;;12.27;;
53710;SDS011;39605;52.704;6.752;2023-11-21T04:12:50;24.98;;;11.60;;
53710;SDS011;39605;52.704;6.752;2023-11-21T04:15:16;24.48;;;10.43;;
53710;SDS011;39605;52.704;6.752;2023-11-21T04:17:42;21.88;;;10.18;;
53710;SDS011;39605;52.704;6.752;2023-11-21T04:20:10;20.52;;;9.55;;
53710;SDS011;39605;52.704;6.752;2023-11-21T04:22:37;26.73;;;11.07;;
53710;SDS011;39605;52.704;6.752;2023-11-21T04:25:06;22.02;;;9.73;;
53710;SDS011;39605;52.704;6.752;2023-11-21T04:27:32;25.73;;;10.25;;
53710;SDS011;39605;52.704;6.752;2023-11-21T04:29:59;23.73;;;9.75;;
53710;SDS011;39605;52.704;6.752;2023-11-21T04:32:25;21.42;;;9.82;;
53710;SDS011;39605;52.704;6.752;2023-11-21T04:34:51;23.95;;;10.32;;
53710;SDS011;39605;52.704;6.752;2023-11-21T04:37:17;22.10;;;9.70;;
53710;SDS011;39605;52.704;6.752;2023-11-21T04:39:43;21.52;;;10.25;;
53710;SDS011;39605;52.704;6.752;2023-11-21T04:42:09;19.77;;;9.60;;
53710;SDS011;39605;52.704;6.752;2023-11-21T04:44:36;21.95;;;9.57;;
53710;SDS011;39605;52.704;6.752;2023-11-21T04:47:03;19.27;;;9.15;;
53710;SDS011;39605;52.704;6.752;2023-11-21T04:49:30;25.77;;;10.13;;
53710;SDS011;39605;52.704;6.752;2023-11-21T04:51:56;24.35;;;10.60;;
53710;SDS011;39605;52.704;6.752;2023-11-21T04:54:22;22.15;;;9.75;;
53710;SDS011;39605;52.704;6.752;2023-11-21T04:56:48;25.33;;;10.05;;
53710;SDS011;39605;52.704;6.752;2023-11-21T04:59:14;20.25;;;10.38;;
53710;SDS011;39605;52.704;6.752;2023-11-21T05:01:40;23.77;;;9.63;;
53710;SDS011;39605;52.704;6.752;2023-11-21T05:04:06;21.75;;;9.43;;
53710;SDS011;39605;52.704;6.752;2023-11-21T05:06:33;20.27;;;9.55;;
53710;SDS011;39605;52.704;6.752;2023-11-21T05:09:00;19.58;;;9.38;;
53710;SDS011;39605;52.704;6.752;2023-11-21T05:11:26;21.73;;;9.25;;
53710;SDS011;39605;52.704;6.752;2023-11-21T05:13:52;23.98;;;10.48;;
53710;SDS011;39605;52.704;6.752;2023-11-21T05:16:20;21.38;;;9.43;;
53710;SDS011;39605;52.704;6.752;2023-11-21T05:18:47;21.85;;;11.15;;
53710;SDS011;39605;52.704;6.752;2023-11-21T05:21:15;22.40;;;10.40;;
53710;SDS011;39605;52.704;6.752;2023-11-21T05:23:41;20.90;;;9.48;;
53710;SDS011;39605;52.704;6.752;2023-11-21T05:26:07;26.98;;;10.55;;
53710;SDS011;39605;52.704;6.752;2023-11-21T05:28:33;28.02;;;10.48;;
53710;SDS011;39605;52.704;6.752;2023-11-21T05:30:59;18.17;;;8.88;;
53710;SDS011;39605;52.704;6.752;2023-11-21T05:33:26;25.50;;;10.20;;
53710;SDS011;39605;52.704;6.752;2023-11-21T05:35:52;24.77;;;10.73;;
53710;SDS011;39605;52.704;6.752;2023-11-21T05:38:18;18.52;;;8.98;;
53710;SDS011;39605;52.704;6.752;2023-11-21T05:40:46;25.13;;;10.75;;
53710;SDS011;39605;52.704;6.752;2023-11-21T05:43:12;26.30;;;11.43;;
53710;SDS011;39605;52.704;6.752;2023-11-21T05:45:40;21.65;;;10.10;;
53710;SDS011;39605;52.704;6.752;2023-11-21T05:48:06;24.60;;;10.43;;
53710;SDS011;39605;52.704;6.752;2023-11-21T05:50:32;22.80;;;10.43;;
53710;SDS011;39605;52.704;6.752;2023-11-21T05:52:58;24.67;;;10.43;;
53710;SDS011;39605;52.704;6.752;2023-11-21T05:55:25;20.85;;;9.90;;
53710;SDS011;39605;52.704;6.752;2023-11-21T05:57:52;34.60;;;16.73;;
53710;SDS011;39605;52.704;6.752;2023-11-21T06:00:18;44.13;;;24.50;;
53710;SDS011;39605;52.704;6.752;2023-11-21T06:02:47;46.85;;;24.88;;
53710;SDS011;39605;52.704;6.752;2023-11-21T06:05:16;41.25;;;24.58;;
53710;SDS011;39605;52.704;6.752;2023-11-21T06:07:43;28.52;;;13.10;;
53710;SDS011;39605;52.704;6.752;2023-11-21T06:10:10;25.02;;;12.32;;
53710;SDS011;39605;52.704;6.752;2023-11-21T06:12:38;26.23;;;12.68;;
53710;SDS011;39605;52.704;6.752;2023-11-21T06:15:05;29.42;;;13.10;;
53710;SDS011;39605;52.704;6.752;2023-11-21T06:17:34;29.88;;;13.80;;
53710;SDS011;39605;52.704;6.752;2023-11-21T06:20:04;26.30;;;13.25;;
53710;SDS011;39605;52.704;6.752;2023-11-21T06:22:37;25.65;;;12.60;;
53710;SDS011;39605;52.704;6.752;2023-11-21T06:25:04;26.23;;;12.15;;
53710;SDS011;39605;52.704;6.752;2023-11-21T06:27:34;27.42;;;13.27;;
53710;SDS011;39605;52.704;6.752;2023-11-21T06:30:02;33.35;;;12.85;;
53710;SDS011;39605;52.704;6.752;2023-11-21T06:32:28;23.67;;;12.88;;
53710;SDS011;39605;52.704;6.752;2023-11-21T06:34:55;24.38;;;11.90;;
53710;SDS011;39605;52.704;6.752;2023-11-21T06:37:21;24.20;;;11.95;;
53710;SDS011;39605;52.704;6.752;2023-11-21T06:39:51;27.33;;;12.68;;
53710;SDS011;39605;52.704;6.752;2023-11-21T06:42:17;24.30;;;11.63;;
53710;SDS011;39605;52.704;6.752;2023-11-21T06:44:46;22.50;;;12.13;;
53710;SDS011;39605;52.704;6.752;2023-11-21T06:47:13;45.38;;;15.07;;
53710;SDS011;39605;52.704;6.752;2023-11-21T06:49:41;22.23;;;12.50;;
53710;SDS011;39605;52.704;6.752;2023-11-21T06:52:07;29.33;;;13.77;;
53710;SDS011;39605;52.704;6.752;2023-11-21T06:54:33;29.08;;;14.40;;
53710;SDS011;39605;52.704;6.752;2023-11-21T06:56:59;27.30;;;13.93;;
53710;SDS011;39605;52.704;6.752;2023-11-21T06:59:25;29.33;;;13.75;;
53710;SDS011;39605;52.704;6.752;2023-11-21T07:01:54;26.90;;;13.63;;
53710;SDS011;39605;52.704;6.752;2023-11-21T07:04:20;31.33;;;13.52;;
53710;SDS011;39605;52.704;6.752;2023-11-21T07:06:46;28.50;;;13.07;;
53710;SDS011;39605;52.704;6.752;2023-11-21T07:09:12;26.38;;;12.05;;
53710;SDS011;39605;52.704;6.752;2023-11-21T07:11:38;27.75;;;12.65;;
53710;SDS011;39605;52.704;6.752;2023-11-21T07:14:04;29.92;;;13.57;;
53710;SDS011;39605;52.704;6.752;2023-11-21T07:16:36;25.75;;;12.25;;
53710;SDS011;39605;52.704;6.752;2023-11-21T07:19:06;31.67;;;13.40;;
53710;SDS011;39605;52.704;6.752;2023-11-21T07:21:32;37.72;;;14.63;;
53710;SDS011;39605;52.704;6.752;2023-11-21T07:23:59;24.05;;;12.18;;
53710;SDS011;39605;52.704;6.752;2023-11-21T07:26:29;35.20;;;13.60;;
53710;SDS011;39605;52.704;6.752;2023-11-21T07:28:55;23.52;;;12.50;;
53710;SDS011;39605;52.704;6.752;2023-11-21T07:31:21;25.40;;;12.68;;
53710;SDS011;39605;52.704;6.752;2023-11-21T07:33:49;20.77;;;11.75;;
53710;SDS011;39605;52.704;6.752;2023-11-21T07:36:16;22.67;;;11.35;;
53710;SDS011;39605;52.704;6.752;2023-11-21T07:38:48;22.10;;;12.60;;
53710;SDS011;39605;52.704;6.752;2023-11-21T07:41:14;45.30;;;27.73;;
53710;SDS011;39605;52.704;6.752;2023-11-21T07:43:43;41.85;;;26.13;;
53710;SDS011;39605;52.704;6.752;2023-11-21T07:46:10;52.30;;;27.33;;
53710;SDS011;39605;52.704;6.752;2023-11-21T07:48:37;69.47;;;30.55;;
53710;SDS011;39605;52.704;6.752;2023-11-21T07:51:04;45.78;;;26.67;;
53710;SDS011;39605;52.704;6.752;2023-11-21T07:53:30;41.45;;;26.48;;
53710;SDS011;39605;52.704;6.752;2023-11-21T07:55:56;45.38;;;26.55;;
53710;SDS011;39605;52.704;6.752;2023-11-21T07:58:22;45.40;;;27.13;;
53710;SDS011;39605;52.704;6.752;2023-11-21T08:00:49;43.28;;;25.35;;
53710;SDS011;39605;52.704;6.752;2023-11-21T08:03:15;46.97;;;27.38;;
53710;SDS011;39605;52.704;6.752;2023-11-21T08:05:42;44.33;;;25.98;;
53710;SDS011;39605;52.704;6.752;2023-11-21T08:08:08;47.95;;;27.15;;
53710;SDS011;39605;52.704;6.752;2023-11-21T08:10:34;44.85;;;26.05;;
53710;SDS011;39605;52.704;6.752;2023-11-21T08:13:04;41.42;;;25.25;;
53710;SDS011;39605;52.704;6.752;2023-11-21T08:15:30;38.53;;;26.02;;
53710;SDS011;39605;52.704;6.752;2023-11-21T08:18:00;37.95;;;25.10;;
53710;SDS011;39605;52.704;6.752;2023-11-21T08:20:26;38.78;;;24.45;;
53710;SDS011;39605;52.704;6.752;2023-11-21T08:22:53;38.10;;;23.42;;
53710;SDS011;39605;52.704;6.752;2023-11-21T08:25:21;42.50;;;25.67;;
53710;SDS011;39605;52.704;6.752;2023-11-21T08:27:48;36.60;;;24.15;;
53710;SDS011;39605;52.704;6.752;2023-11-21T08:30:14;35.42;;;23.65;;
53710;SDS011;39605;52.704;6.752;2023-11-21T08:32:42;35.45;;;23.33;;
53710;SDS011;39605;52.704;6.752;2023-11-21T08:35:08;35.03;;;23.60;;
53710;SDS011;39605;52.704;6.752;2023-11-21T08:37:34;37.53;;;24.08;;
53710;SDS011;39605;52.704;6.752;2023-11-21T08:40:04;34.90;;;22.95;;
53710;SDS011;39605;52.704;6.752;2023-11-21T08:42:34;33.00;;;23.48;;
53710;SDS011;39605;52.704;6.752;2023-11-21T08:45:00;48.38;;;25.25;;
53710;SDS011;39605;52.704;6.752;2023-11-21T08:47:26;46.45;;;24.80;;
53710;SDS011;39605;52.704;6.752;2023-11-21T08:49:52;33.78;;;22.02;;
53710;SDS011;39605;52.704;6.752;2023-11-21T08:52:19;35.38;;;21.58;;
53710;SDS011;39605;52.704;6.752;2023-11-21T08:54:51;34.47;;;20.98;;
53710;SDS011;39605;52.704;6.752;2023-11-21T08:57:24;29.13;;;19.83;;
53710;SDS011;39605;52.704;6.752;2023-11-21T08:59:50;32.78;;;21.00;;
53710;SDS011;39605;52.704;6.752;2023-11-21T09:02:25;28.30;;;18.67;;
53710;SDS011;39605;52.704;6.752;2023-11-21T09:04:52;31.08;;;19.25;;
53710;SDS011;39605;52.704;6.752;2023-11-21T09:07:21;34.60;;;18.90;;
53710;SDS011;39605;52.704;6.752;2023-11-21T09:09:47;24.67;;;17.08;;
53710;SDS011;39605;52.704;6.752;2023-11-21T09:12:14;28.15;;;17.27;;
53710;SDS011;39605;52.704;6.752;2023-11-21T09:14:41;25.95;;;16.60;;
53710;SDS011;39605;52.704;6.752;2023-11-21T09:17:07;23.30;;;15.88;;
53710;SDS011;39605;52.704;6.752;2023-11-21T09:19:38;24.75;;;15.95;;
53710;SDS011;39605;52.704;6.752;2023-11-21T09:22:05;26.58;;;16.70;;
53710;SDS011;39605;52.704;6.752;2023-11-21T09:24:31;27.58;;;16.63;;
53710;SDS011;39605;52.704;6.752;2023-11-21T09:26:58;31.00;;;17.25;;
53710;SDS011;39605;52.704;6.752;2023-11-21T09:29:25;32.88;;;18.33;;
53710;SDS011;39605;52.704;6.752;2023-11-21T09:31:51;36.88;;;19.25;;
53710;SDS011;39605;52.704;6.752;2023-11-21T09:34:17;39.42;;;20.52;;
53710;SDS011;39605;52.704;6.752;2023-11-21T09:36:44;38.60;;;21.73;;
53710;SDS011;39605;52.704;6.752;2023-11-21T09:39:11;45.72;;;23.52;;
53710;SDS011;39605;52.704;6.752;2023-11-21T09:41:49;43.45;;;24.00;;
53710;SDS011;39605;52.704;6.752;2023-11-21T09:44:17;43.80;;;23.42;;
53710;SDS011;39605;52.704;6.752;2023-11-21T09:46:44;40.78;;;23.40;;
53710;SDS011;39605;52.704;6.752;2023-11-21T09:49:16;47.83;;;25.38;;
53710;SDS011;39605;52.704;6.752;2023-11-21T09:51:44;46.25;;;25.38;;
53710;SDS011;39605;52.704;6.752;2023-11-21T09:54:10;47.67;;;25.85;;
53710;SDS011;39605;52.704;6.752;2023-11-21T09:56:37;41.72;;;25.27;;
53710;SDS011;39605;52.704;6.752;2023-11-21T09:59:03;42.13;;;24.92;;
53710;SDS011;39605;52.704;6.752;2023-11-21T10:01:33;38.63;;;24.42;;
53710;SDS011;39605;52.704;6.752;2023-11-21T10:04:02;38.38;;;26.17;;
53710;SDS011;39605;52.704;6.752;2023-11-21T10:06:28;40.97;;;26.00;;
53710;SDS011;39605;52.704;6.752;2023-11-21T10:08:56;41.78;;;23.83;;
53710;SDS011;39605;52.704;6.752;2023-11-21T10:11:25;37.72;;;25.70;;
53710;SDS011;39605;52.704;6.752;2023-11-21T10:13:54;39.63;;;25.45;;
53710;SDS011;39605;52.704;6.752;2023-11-21T10:16:22;33.45;;;22.42;;
53710;SDS011;39605;52.704;6.752;2023-11-21T10:18:51;36.10;;;25.65;;
53710;SDS011;39605;52.704;6.752;2023-11-21T10:21:20;31.77;;;23.63;;
53710;SDS011;39605;52.704;6.752;2023-11-21T10:23:47;33.88;;;23.05;;
53710;SDS011;39605;52.704;6.752;2023-11-21T10:26:13;32.90;;;23.45;;
53710;SDS011;39605;52.704;6.752;2023-11-21T10:28:55;33.58;;;25.02;;
53710;SDS011;39605;52.704;6.752;2023-11-21T10:31:22;35.13;;;23.10;;
53710;SDS011;39605;52.704;6.752;2023-11-21T10:33:52;36.35;;;25.70;;
53710;SDS011;39605;52.704;6.752;2023-11-21T10:36:28;36.25;;;25.23;;
53710;SDS011;39605;52.704;6.752;2023-11-21T10:38:54;32.03;;;23.15;;
53710;SDS011;39605;52.704;6.752;2023-11-21T10:41:20;32.28;;;24.17;;
53710;SDS011;39605;52.704;6.752;2023-11-21T10:43:46;32.72;;;24.30;;
53710;SDS011;39605;52.704;6.752;2023-11-21T10:46:14;32.15;;;24.02;;
53710;SDS011;39605;52.704;6.752;2023-11-21T10:48:41;35.03;;;25.30;;
53710;SDS011;39605;52.704;6.752;2023-11-21T10:51:08;33.65;;;25.58;;
53710;SDS011;39605;52.704;6.752;2023-11-21T10:53:40;32.55;;;23.17;;
53710;SDS011;39605;52.704;6.752;2023-11-21T10:56:10;32.97;;;23.85;;
53710;SDS011;39605;52.704;6.752;2023-11-21T10:58:42;33.33;;;24.10;;
53710;SDS011;39605;52.704;6.752;2023-11-21T11:01:08;29.75;;;23.88;;
53710;SDS011;39605;52.704;6.752;2023-11-21T11:03:39;28.65;;;21.45;;
53710;SDS011;39605;52.704;6.752;2023-11-21T11:06:05;25.10;;;21.95;;
53710;SDS011;39605;52.704;6.752;2023-11-21T11:08:36;27.90;;;22.27;;
53710;SDS011;39605;52.704;6.752;2023-11-21T11:11:04;24.05;;;19.52;;
53710;SDS011;39605;52.704;6.752;2023-11-21T11:13:30;21.63;;;18.25;;
53710;SDS011;39605;52.704;6.752;2023-11-21T11:16:00;15.00;;;13.60;;
53710;SDS011;39605;52.704;6.752;2023-11-21T11:18:30;15.00;;;13.30;;
53710;SDS011;39605;52.704;6.752;2023-11-21T11:21:07;14.77;;;12.80;;
53710;SDS011;39605;52.704;6.752;2023-11-21T11:26:15;12.57;;;10.98;;
53710;SDS011;39605;52.704;6.752;2023-11-21T11:28:51;11.25;;;10.15;;
53710;SDS011;39605;52.704;6.752;2023-11-21T11:36:26;9.73;;;8.80;;
53710;SDS011;39605;52.704;6.752;2023-11-21T11:38:54;8.18;;;7.47;;
53710;SDS011;39605;52.704;6.752;2023-11-21T11:41:27;8.98;;;8.10;;
53710;SDS011;39605;52.704;6.752;2023-11-21T11:43:55;9.20;;;8.35;;
53710;SDS011;39605;52.704;6.752;2023-11-21T11:46:39;8.98;;;8.18;;
53710;SDS011;39605;52.704;6.752;2023-11-21T11:49:06;9.80;;;8.77;;
53710;SDS011;39605;52.704;6.752;2023-11-21T11:51:34;9.93;;;8.90;;
53710;SDS011;39605;52.704;6.752;2023-11-21T11:54:01;10.65;;;9.68;;
53710;SDS011;39605;52.704;6.752;2023-11-21T11:56:30;9.88;;;9.07;;
53710;SDS011;39605;52.704;6.752;2023-11-21T11:59:00;10.30;;;9.35;;
53710;SDS011;39605;52.704;6.752;2023-11-21T12:01:27;10.68;;;9.68;;
53710;SDS011;39605;52.704;6.752;2023-11-21T12:06:40;9.85;;;9.05;;
53710;SDS011;39605;52.704;6.752;2023-11-21T12:09:07;9.80;;;8.90;;
53710;SDS011;39605;52.704;6.752;2023-11-21T12:11:40;8.63;;;7.82;;
53710;SDS011;39605;52.704;6.752;2023-11-21T12:14:09;8.88;;;8.07;;
53710;SDS011;39605;52.704;6.752;2023-11-21T12:16:35;9.43;;;8.65;;
53710;SDS011;39605;52.704;6.752;2023-11-21T12:19:01;7.45;;;6.75;;
53710;SDS011;39605;52.704;6.752;2023-11-21T12:21:27;8.85;;;8.15;;
53710;SDS011;39605;52.704;6.752;2023-11-21T12:23:54;8.40;;;7.63;;
53710;SDS011;39605;52.704;6.752;2023-11-21T12:26:22;9.00;;;8.20;;
53710;SDS011;39605;52.704;6.752;2023-11-21T12:28:52;8.23;;;7.53;;
53710;SDS011;39605;52.704;6.752;2023-11-21T12:31:21;8.55;;;7.85;;
53710;SDS011;39605;52.704;6.752;2023-11-21T12:33:47;9.10;;;8.30;;
53710;SDS011;39605;52.704;6.752;2023-11-21T12:36:13;8.93;;;8.00;;
53710;SDS011;39605;52.704;6.752;2023-11-21T12:38:40;9.25;;;8.45;;
53710;SDS011;39605;52.704;6.752;2023-11-21T12:41:07;9.18;;;8.38;;
53710;SDS011;39605;52.704;6.752;2023-11-21T12:43:33;11.40;;;8.85;;
53710;SDS011;39605;52.704;6.752;2023-11-21T12:46:06;9.68;;;8.77;;
53710;SDS011;39605;52.704;6.752;2023-11-21T12:48:36;8.20;;;7.37;;
53710;SDS011;39605;52.704;6.752;2023-11-21T12:51:04;10.27;;;8.10;;
53710;SDS011;39605;52.704;6.752;2023-11-21T12:53:31;9.50;;;8.60;;
53710;SDS011;39605;52.704;6.752;2023-11-21T12:56:06;8.68;;;7.80;;
53710;SDS011;39605;52.704;6.752;2023-11-21T12:58:34;9.30;;;8.50;;
53710;SDS011;39605;52.704;6.752;2023-11-21T13:01:01;9.55;;;8.65;;
53710;SDS011;39605;52.704;6.752;2023-11-21T13:03:30;9.05;;;8.25;;
53710;SDS011;39605;52.704;6.752;2023-11-21T13:05:57;9.05;;;8.18;;
53710;SDS011;39605;52.704;6.752;2023-11-21T13:08:25;8.68;;;7.88;;
53710;SDS011;39605;52.704;6.752;2023-11-21T13:10:55;9.40;;;8.50;;
53710;SDS011;39605;52.704;6.752;2023-11-21T13:13:21;9.40;;;8.35;;
53710;SDS011;39605;52.704;6.752;2023-11-21T13:18:18;8.50;;;7.70;;
53710;SDS011;39605;52.704;6.752;2023-11-21T13:20:46;8.88;;;8.02;;
53710;SDS011;39605;52.704;6.752;2023-11-21T13:23:13;11.63;;;8.55;;
53710;SDS011;39605;52.704;6.752;2023-11-21T13:25:41;9.07;;;8.32;;
53710;SDS011;39605;52.704;6.752;2023-11-21T13:28:10;8.95;;;7.78;;
53710;SDS011;39605;52.704;6.752;2023-11-21T13:30:37;9.30;;;8.52;;
53710;SDS011;39605;52.704;6.752;2023-11-21T13:33:05;10.30;;;9.25;;
53710;SDS011;39605;52.704;6.752;2023-11-21T13:35:33;9.70;;;8.80;;
53710;SDS011;39605;52.704;6.752;2023-11-21T13:38:20;8.35;;;7.60;;
53710;SDS011;39605;52.704;6.752;2023-11-21T13:40:50;9.38;;;8.57;;
53710;SDS011;39605;52.704;6.752;2023-11-21T13:43:25;9.05;;;8.13;;
53710;SDS011;39605;52.704;6.752;2023-11-21T13:45:53;7.95;;;7.25;;
53710;SDS011;39605;52.704;6.752;2023-11-21T13:48:31;9.57;;;8.68;;
53710;SDS011;39605;52.704;6.752;2023-11-21T13:51:05;10.67;;;8.23;;
53710;SDS011;39605;52.704;6.752;2023-11-21T13:53:45;9.70;;;7.45;;
53710;SDS011;39605;52.704;6.752;2023-11-21T13:56:18;8.57;;;7.78;;
53710;SDS011;39605;52.704;6.752;2023-11-21T13:58:49;7.95;;;7.32;;
53710;SDS011;39605;52.704;6.752;2023-11-21T14:01:19;9.63;;;8.38;;
53710;SDS011;39605;52.704;6.752;2023-11-21T14:04:12;9.25;;;7.53;;
53710;SDS011;39605;52.704;6.752;2023-11-21T14:06:50;9.43;;;8.23;;
53710;SDS011;39605;52.704;6.752;2023-11-21T14:09:23;8.23;;;7.43;;
53710;SDS011;39605;52.704;6.752;2023-11-21T14:11:59;8.30;;;7.63;;
53710;SDS011;39605;52.704;6.752;2023-11-21T14:14:28;8.48;;;7.68;;
53710;SDS011;39605;52.704;6.752;2023-11-21T14:16:54;9.48;;;8.40;;
53710;SDS011;39605;52.704;6.752;2023-11-21T14:19:24;10.20;;;9.20;;
53710;SDS011;39605;52.704;6.752;2023-11-21T14:21:56;9.93;;;9.02;;
53710;SDS011;39605;52.704;6.752;2023-11-21T14:24:22;9.32;;;8.27;;
53710;SDS011;39605;52.704;6.752;2023-11-21T14:26:49;9.27;;;8.32;;
53710;SDS011;39605;52.704;6.752;2023-11-21T14:29:16;9.35;;;8.55;;
53710;SDS011;39605;52.704;6.752;2023-11-21T14:31:45;9.43;;;8.52;;
53710;SDS011;39605;52.704;6.752;2023-11-21T14:34:11;11.65;;;8.85;;
53710;SDS011;39605;52.704;6.752;2023-11-21T14:36:38;9.25;;;8.40;;
53710;SDS011;39605;52.704;6.752;2023-11-21T14:39:05;9.25;;;8.45;;
53710;SDS011;39605;52.704;6.752;2023-11-21T14:41:41;9.18;;;8.27;;
53710;SDS011;39605;52.704;6.752;2023-11-21T14:44:09;9.63;;;8.65;;